createdAt,value
2018-04-02T00:00:54.724Z,4.01
2018-04-02T00:06:45.511Z,4.34
2018-04-02T00:12:36.353Z,4.22
2018-04-02T00:18:27.121Z,5.12
2018-04-02T00:24:17.871Z,5.53
2018-04-02T00:30:08.680Z,6.17
2018-04-02T00:35:59.472Z,5.71
2018-04-02T00:41:50.245Z,4.92
2018-04-02T00:47:41.050Z,5.6
2018-04-02T00:53:31.869Z,4.72
2018-04-02T00:59:22.631Z,6.01
2018-04-02T01:05:13.395Z,5.6
2018-04-02T01:11:04.226Z,5.51
2018-04-02T01:16:55.018Z,5.43
2018-04-02T01:22:45.827Z,6.92
2018-04-02T01:28:36.618Z,5.21
2018-04-02T01:34:27.415Z,5.47
2018-04-02T01:40:18.239Z,5.11
2018-04-02T01:46:08.946Z,5.86
2018-04-02T01:51:59.745Z,5.3
2018-04-02T01:57:50.497Z,4.65
2018-04-02T02:03:41.339Z,5
2018-04-02T02:09:32.096Z,5.64
2018-04-02T02:15:22.911Z,5.35
2018-04-02T02:21:13.668Z,4.43
2018-04-02T02:27:04.483Z,4.4
2018-04-02T02:32:55.294Z,4.87
2018-04-02T02:38:46.113Z,4.39
2018-04-02T02:44:36.864Z,4.67
2018-04-02T02:50:27.641Z,4.87
2018-04-02T02:56:18.495Z,4.69
2018-04-02T03:02:09.250Z,4.1
2018-04-02T03:07:59.970Z,4.28
2018-04-02T03:13:50.742Z,5.56
2018-04-02T03:19:41.595Z,5.32
2018-04-02T03:25:32.321Z,4.58
2018-04-02T03:31:23.101Z,4.47
2018-04-02T03:37:13.955Z,5.6
2018-04-02T03:43:04.684Z,4.8
2018-04-02T03:48:55.477Z,4.23
2018-04-02T03:54:46.242Z,3.97
2018-04-02T04:00:37.012Z,4.19
2018-04-02T04:06:27.850Z,4.41
2018-04-02T04:12:18.622Z,5.17
2018-04-02T04:18:09.391Z,7.63
2018-04-02T04:24:00.169Z,6.65
2018-04-02T04:29:50.981Z,8.02
2018-04-02T04:35:41.750Z,8.15
2018-04-02T04:41:32.495Z,6.45
2018-04-02T04:47:23.372Z,5.84
2018-04-02T04:53:14.099Z,6.43
2018-04-02T04:59:04.860Z,5.32
2018-04-02T05:04:55.669Z,5.48
2018-04-02T05:10:46.425Z,4.8
2018-04-02T05:16:37.250Z,4.88
2018-04-02T05:22:28.007Z,5
2018-04-02T05:28:18.728Z,4.72
2018-04-02T05:34:09.549Z,5.24
2018-04-02T05:40:00.306Z,4.45
2018-04-02T05:45:51.068Z,5.48
2018-04-02T05:51:41.880Z,5.07
2018-04-02T05:57:32.666Z,5.07
2018-04-02T06:03:23.382Z,4.9
2018-04-02T06:09:14.173Z,5.43
2018-04-02T06:15:04.950Z,10.38
2018-04-02T06:20:55.754Z,7.49
2018-04-02T06:26:46.520Z,8.37
2018-04-02T06:32:37.274Z,8.43
2018-04-02T06:38:28.084Z,7.43
2018-04-02T06:44:18.841Z,6.69
2018-04-02T06:50:09.675Z,6.14
2018-04-02T06:56:00.429Z,6.9
2018-04-02T07:01:51.178Z,6.89
2018-04-02T07:07:42.074Z,5.77
2018-04-02T07:13:32.780Z,7.06
2018-04-02T07:19:23.636Z,6.72
2018-04-02T07:25:14.337Z,5.56
2018-04-02T07:31:05.215Z,5.66
2018-04-02T07:36:55.926Z,7.65
2018-04-02T07:42:46.782Z,6.56
2018-04-02T07:48:37.522Z,6.72
2018-04-02T07:54:28.320Z,7.26
2018-04-02T08:00:19.126Z,7.61
2018-04-02T08:06:09.941Z,7
2018-04-02T08:12:00.737Z,6.36
2018-04-02T08:17:51.667Z,7.28
2018-04-02T08:23:42.337Z,6.95
2018-04-02T08:29:33.159Z,7.55
2018-04-02T08:35:23.948Z,9.02
2018-04-02T08:41:14.726Z,11.72
2018-04-02T08:47:05.541Z,5.45
2018-04-02T08:52:56.416Z,5.81
2018-04-02T08:58:47.192Z,7.57
2018-04-02T09:04:37.985Z,6.4
2018-04-02T09:10:28.827Z,7.14
2018-04-02T09:16:19.621Z,7.44
2018-04-02T09:22:10.430Z,9.76
2018-04-02T09:28:01.280Z,6.13
2018-04-02T09:33:52.130Z,5.28
2018-04-02T09:39:43.005Z,4.76
2018-04-02T09:45:33.845Z,6.03
2018-04-02T09:51:24.692Z,5.05
2018-04-02T09:57:15.520Z,5.6
2018-04-02T10:03:06.443Z,6.93
2018-04-02T10:08:57.250Z,6.01
2018-04-02T10:14:48.118Z,5.41
2018-04-02T10:20:39.058Z,6.34
2018-04-02T10:26:29.897Z,7.54
2018-04-02T10:32:20.783Z,13.74
2018-04-02T10:38:11.646Z,9.04
2018-04-02T10:44:02.620Z,6.29
2018-04-02T10:49:53.456Z,4.59
2018-04-02T10:55:44.360Z,5.29
2018-04-02T11:01:35.274Z,5.46
2018-04-02T11:07:26.156Z,5.66
2018-04-02T11:13:17.078Z,4.65
2018-04-02T11:19:07.956Z,5.21
2018-04-02T11:24:58.885Z,4.71
2018-04-02T11:30:49.804Z,4.38
2018-04-02T11:36:40.706Z,3.44
2018-04-02T11:42:31.624Z,3.11
2018-04-02T11:48:22.560Z,2.79
2018-04-02T11:54:13.428Z,2.46
2018-04-02T12:00:04.395Z,2.85
2018-04-02T12:05:55.274Z,2.17
2018-04-02T12:11:46.237Z,2.34
2018-04-02T12:17:37.000Z,3.1
2018-04-02T12:23:27.850Z,2.27
2018-04-02T12:29:18.695Z,2.76
2018-04-02T12:35:09.454Z,2.39
2018-04-02T12:41:00.275Z,2.64
2018-04-02T12:46:51.128Z,3
2018-04-02T12:52:41.923Z,2.7
2018-04-02T12:58:32.870Z,2.94
2018-04-02T13:04:23.771Z,2.9
2018-04-02T13:10:14.692Z,2.35
2018-04-02T13:16:05.571Z,2.13
2018-04-02T13:21:56.554Z,2.22
2018-04-02T13:27:47.394Z,2.31
2018-04-02T13:33:38.291Z,2.12
2018-04-02T13:39:29.160Z,2.16
2018-04-02T13:45:20.042Z,3.27
2018-04-02T13:51:10.946Z,2.13
2018-04-02T13:57:01.861Z,2.46
2018-04-02T14:02:52.729Z,3.17
2018-04-02T14:08:43.570Z,2.28
2018-04-02T14:14:34.446Z,2.41
2018-04-02T14:20:25.357Z,3.04
2018-04-02T14:26:16.236Z,2.82
2018-04-02T14:32:07.083Z,2.93
2018-04-02T14:37:57.951Z,2.74
2018-04-02T14:43:48.830Z,2.24
2018-04-02T14:49:39.767Z,2.45
2018-04-02T14:55:30.591Z,2.67
2018-04-02T15:01:21.497Z,2.54
2018-04-02T15:07:12.373Z,2.12
2018-04-02T15:13:03.185Z,2.94
2018-04-02T15:18:54.124Z,2.38
2018-04-02T15:24:44.923Z,3.29
2018-04-02T15:30:35.765Z,2.61
2018-04-02T15:36:26.635Z,2.22
2018-04-02T15:42:17.564Z,4.01
2018-04-02T15:48:08.399Z,2.71
2018-04-02T15:53:59.238Z,2.62
2018-04-02T15:59:50.110Z,2.47
2018-04-02T16:05:40.953Z,2.85
2018-04-02T16:11:31.791Z,2.87
2018-04-02T16:17:22.642Z,3.78
2018-04-02T16:23:13.530Z,10.76
2018-04-02T16:29:04.545Z,3.31
2018-04-02T16:34:55.212Z,2.87
2018-04-02T16:40:46.102Z,3.6
2018-04-02T16:46:36.925Z,4.35
2018-04-02T16:52:27.806Z,3.57
2018-04-02T16:58:18.717Z,3.58
2018-04-02T17:04:09.480Z,4.58
2018-04-02T17:10:00.336Z,5.42
2018-04-02T17:15:51.210Z,4.34
2018-04-02T17:21:41.982Z,3.28
2018-04-02T17:27:32.904Z,3.68
2018-04-02T17:33:23.666Z,3.79
2018-04-02T17:39:14.501Z,4.07
2018-04-02T17:45:05.318Z,4.62
2018-04-02T17:50:56.193Z,3.5
2018-04-02T17:56:47.042Z,5.22
2018-04-02T18:02:37.847Z,4.85
2018-04-02T18:08:28.697Z,4.3
2018-04-02T18:14:19.528Z,4.45
2018-04-02T18:20:10.298Z,5.16
2018-04-02T18:26:01.176Z,4.83
2018-04-02T18:31:52.003Z,4.95
2018-04-02T18:37:42.827Z,4.83
2018-04-02T18:43:33.622Z,5.23
2018-04-02T18:49:24.500Z,4.71
2018-04-02T18:55:15.279Z,5.31
2018-04-02T19:01:06.090Z,5.14
2018-04-02T19:06:56.920Z,4.55
2018-04-02T19:12:47.773Z,5.34
2018-04-02T19:18:38.577Z,4.72
2018-04-02T19:24:29.372Z,4.24
2018-04-02T19:30:20.176Z,5.53
2018-04-02T19:36:10.999Z,6.06
2018-04-02T19:42:01.840Z,4.37
2018-04-02T19:47:52.653Z,4.82
2018-04-02T19:53:43.471Z,4.53
2018-04-02T19:59:34.365Z,5.17
2018-04-02T20:05:25.138Z,5.95
2018-04-02T20:11:16.003Z,5.92
2018-04-02T20:17:06.785Z,5.45
2018-04-02T20:22:57.639Z,5.12
2018-04-02T20:28:48.437Z,4.27
2018-04-02T20:34:39.220Z,5
2018-04-02T20:40:30.052Z,4.22
2018-04-02T20:41:12.948Z,4.33
2018-04-02T20:47:03.783Z,4.16
2018-04-02T20:52:54.599Z,4.43
2018-04-02T20:58:45.425Z,3.92
2018-04-02T21:04:36.291Z,3.75
2018-04-02T21:10:27.023Z,4.11
2018-04-02T21:16:17.873Z,3.5
2018-04-02T21:22:08.685Z,3.3
2018-04-02T21:27:59.509Z,3.08
2018-04-02T21:33:50.301Z,4.13
2018-04-02T21:39:41.085Z,3.46
2018-04-02T21:45:31.894Z,2.94
2018-04-02T21:51:22.744Z,3.59
2018-04-02T21:57:13.531Z,3.59
2018-04-02T22:03:04.402Z,2.8
2018-04-02T22:08:55.168Z,3.29
2018-04-02T22:14:45.959Z,3.18
2018-04-02T22:20:36.782Z,3.14
2018-04-02T22:26:27.547Z,3.12
2018-04-02T22:32:18.368Z,3.05
2018-04-02T22:38:09.123Z,3.1
2018-04-02T22:43:59.954Z,2.57
2018-04-02T22:49:50.747Z,2.87
2018-04-02T22:55:41.555Z,2.83
2018-04-02T23:01:32.474Z,2.75
2018-04-02T23:07:23.109Z,3
2018-04-02T23:13:13.946Z,2.44
2018-04-02T23:19:04.721Z,2.28
2018-04-02T23:24:55.513Z,3.18
2018-04-02T23:30:46.275Z,2.63
2018-04-02T23:36:37.122Z,2.51
2018-04-02T23:42:27.908Z,2.1
2018-04-02T23:48:18.671Z,2.74
2018-04-02T23:54:09.524Z,2.37
